createdAt,value
2022-12-03T00:00:16.246Z,101256.25
2022-12-03T00:02:42.802Z,101247.59
2022-12-03T00:05:10.097Z,101250.28
2022-12-03T00:07:36.625Z,101240.31
2022-12-03T00:10:04.162Z,101241.25
2022-12-03T00:12:30.596Z,101251.09
2022-12-03T00:14:57.348Z,101247.03
2022-12-03T00:17:23.924Z,101247.97
2022-12-03T00:19:50.353Z,101239.34
2022-12-03T00:22:16.803Z,101233.53
2022-12-03T00:24:43.225Z,101243.28
2022-12-03T00:27:09.648Z,101231.13
2022-12-03T00:29:38.256Z,101243.28
2022-12-03T00:32:04.915Z,101234.81
2022-12-03T00:34:31.406Z,101236.56
2022-12-03T00:36:57.843Z,101232.59
2022-12-03T00:39:24.301Z,101233.84
2022-12-03T00:41:50.773Z,101236.03
2022-12-03T00:44:17.649Z,101227.41
2022-12-03T00:46:44.134Z,101226.69
2022-12-03T00:49:10.642Z,101233.72
2022-12-03T00:51:37.086Z,101235.63
2022-12-03T00:54:03.557Z,101232.41
2022-12-03T00:56:30.030Z,101229.38
2022-12-03T00:58:56.476Z,101239.16
2022-12-03T01:01:22.982Z,101235.91
2022-12-03T01:03:49.494Z,101232.03
2022-12-03T01:06:15.986Z,101229.31
2022-12-03T01:08:42.435Z,101227.22
2022-12-03T01:11:28.887Z,101241.78
2022-12-03T01:13:55.314Z,101233.78
2022-12-03T01:16:21.812Z,101232.84
2022-12-03T01:18:48.395Z,101233.63
2022-12-03T01:21:14.880Z,101240.63
2022-12-03T01:23:41.307Z,101234.44
2022-12-03T01:26:07.752Z,101235.19
2022-12-03T01:28:34.217Z,101230.16
2022-12-03T01:31:19.444Z,101229.97
2022-12-03T01:33:45.961Z,101227.56
2022-12-03T01:36:12.414Z,101229.94
2022-12-03T01:38:38.875Z,101230.34
2022-12-03T01:41:10.093Z,101224.94
2022-12-03T01:43:38.332Z,101227.22
2022-12-03T01:46:05.017Z,101223.47
2022-12-03T01:48:34.858Z,101217.41
2022-12-03T01:51:01.668Z,101221.03
2022-12-03T01:53:28.091Z,101221.66
2022-12-03T01:55:54.614Z,101219.66
2022-12-03T01:58:26.409Z,101225.94
2022-12-03T02:00:53.470Z,101215.91
2022-12-03T02:03:23.879Z,101219.03
2022-12-03T02:05:50.743Z,101212.78
2022-12-03T02:08:35.358Z,101215.97
2022-12-03T02:11:07.744Z,101216.81
2022-12-03T02:13:34.492Z,101209.91
2022-12-03T02:16:01.062Z,101211.69
2022-12-03T02:18:27.582Z,101211.97
2022-12-03T02:21:06.242Z,101210.50
2022-12-03T02:23:54.005Z,101209.59
2022-12-03T02:26:20.754Z,101213.19
2022-12-03T02:28:47.211Z,101214.16
2022-12-03T02:31:13.817Z,101204.44
2022-12-03T02:33:40.313Z,101208.19
2022-12-03T02:36:07.119Z,101210.09
2022-12-03T02:38:35.055Z,101209.94
2022-12-03T02:41:07.503Z,101209.59
2022-12-03T02:43:34.082Z,101209.78
2022-12-03T02:46:02.990Z,101205.31
2022-12-03T02:48:36.970Z,101213.38
2022-12-03T02:51:09.027Z,101215.97
2022-12-03T02:53:44.408Z,101211.25
2022-12-03T02:56:14.481Z,101215.28
2022-12-03T02:58:43.542Z,101212.09
2022-12-03T03:01:10.859Z,101212.97
2022-12-03T03:03:38.582Z,101210.97
2022-12-03T03:06:06.898Z,101210.22
2022-12-03T03:08:33.961Z,101208.00
2022-12-03T03:11:02.170Z,101211.78
2022-12-03T03:13:30.956Z,101210.16
2022-12-03T03:15:57.480Z,101212.16
2022-12-03T03:18:24.163Z,101212.78
2022-12-03T03:20:50.967Z,101214.38
2022-12-03T03:23:21.452Z,101212.16
2022-12-03T03:25:53.407Z,101209.44
2022-12-03T03:28:21.675Z,101205.06
2022-12-03T03:30:48.480Z,101207.69
2022-12-03T03:33:15.992Z,101201.63
2022-12-03T03:35:44.270Z,101204.41
2022-12-03T03:38:11.552Z,101198.34
2022-12-03T03:40:39.509Z,101199.41
2022-12-03T03:43:07.016Z,101204.44
2022-12-03T03:45:33.930Z,101198.59
2022-12-03T03:48:01.270Z,101200.66
2022-12-03T03:50:31.328Z,101195.03
2022-12-03T03:53:00.355Z,101201.78
2022-12-03T03:55:27.346Z,101199.84
2022-12-03T03:57:54.361Z,101208.09
2022-12-03T04:00:20.829Z,101204.97
2022-12-03T04:02:47.441Z,101197.47
2022-12-03T04:05:20.158Z,101199.00
2022-12-03T04:07:47.273Z,101204.88
2022-12-03T04:10:33.971Z,101201.16
2022-12-03T04:13:01.179Z,101192.94
2022-12-03T04:15:28.461Z,101198.34
2022-12-03T04:18:14.116Z,101194.22
2022-12-03T04:20:41.386Z,101194.28
2022-12-03T04:23:08.251Z,101190.94
2022-12-03T04:25:53.303Z,101185.59
2022-12-03T04:28:38.409Z,101188.41
2022-12-03T04:31:25.065Z,101188.63
2022-12-03T04:34:10.420Z,101190.69
2022-12-03T04:36:36.888Z,101190.13
2022-12-03T04:39:03.877Z,101190.13
2022-12-03T04:41:30.342Z,101194.28
2022-12-03T04:44:15.198Z,101191.09
2022-12-03T04:46:41.681Z,101184.88
2022-12-03T04:49:08.161Z,101189.66
2022-12-03T04:51:34.623Z,101186.56
2022-12-03T04:54:01.052Z,101183.03
2022-12-03T04:56:27.512Z,101197.47
2022-12-03T04:58:53.971Z,101183.84
2022-12-03T05:01:20.445Z,101188.16
2022-12-03T05:03:46.913Z,101192.06
2022-12-03T05:06:13.361Z,101182.66
2022-12-03T05:08:39.797Z,101177.63
2022-12-03T05:11:06.650Z,101180.03
2022-12-03T05:13:33.272Z,101171.00
2022-12-03T05:16:00.222Z,101172.81
2022-12-03T05:18:26.716Z,101171.56
2022-12-03T05:20:53.777Z,101164.41
2022-12-03T05:23:21.177Z,101171.56
2022-12-03T05:25:47.654Z,101159.75
2022-12-03T05:28:14.350Z,101169.16
2022-12-03T05:30:41.263Z,101165.66
2022-12-03T05:33:08.042Z,101165.81
2022-12-03T05:35:34.473Z,101157.50
2022-12-03T05:38:00.999Z,101162.00
2022-12-03T05:40:27.421Z,101160.94
2022-12-03T05:42:53.946Z,101165.72
2022-12-03T05:45:40.091Z,101161.84
2022-12-03T05:48:08.610Z,101157.94
2022-12-03T05:50:36.856Z,101152.66
2022-12-03T05:53:16.911Z,101156.78
2022-12-03T05:55:43.433Z,101162.09
2022-12-03T05:58:11.659Z,101158.72
2022-12-03T06:00:42.344Z,101151.19
2022-12-03T06:03:10.118Z,101156.09
2022-12-03T06:05:36.783Z,101159.22
2022-12-03T06:08:03.551Z,101162.78
2022-12-03T06:10:30.290Z,101157.56
2022-12-03T06:12:57.052Z,101159.94
2022-12-03T06:15:23.830Z,101151.94
2022-12-03T06:17:50.459Z,101151.28
2022-12-03T06:20:19.932Z,101152.34
2022-12-03T06:22:47.635Z,101165.75
2022-12-03T06:25:15.122Z,101159.41
2022-12-03T06:27:41.751Z,101165.59
2022-12-03T06:30:12.095Z,101163.50
2022-12-03T06:32:38.537Z,101160.13
2022-12-03T06:35:05.373Z,101155.38
2022-12-03T06:37:31.803Z,101156.81
2022-12-03T06:39:58.250Z,101157.28
2022-12-03T06:42:24.763Z,101162.69
2022-12-03T06:44:51.541Z,101158.81
2022-12-03T06:47:18.215Z,101157.81
2022-12-03T06:49:44.712Z,101150.75
2022-12-03T06:52:11.129Z,101150.50
2022-12-03T06:54:37.595Z,101154.63
2022-12-03T06:57:04.131Z,101163.81
2022-12-03T06:59:34.017Z,101164.47
2022-12-03T07:02:01.001Z,101162.78
2022-12-03T07:04:27.520Z,101162.84
2022-12-03T07:06:53.993Z,101164.38
2022-12-03T07:09:20.499Z,101163.03
2022-12-03T07:11:47.013Z,101164.41
2022-12-03T07:14:16.412Z,101166.59
2022-12-03T07:16:43.422Z,101163.34
2022-12-03T07:19:10.482Z,101165.25
2022-12-03T07:21:37.014Z,101168.63
2022-12-03T07:24:03.634Z,101167.97
2022-12-03T07:26:30.137Z,101169.97
2022-12-03T07:28:56.833Z,101168.94
2022-12-03T07:31:23.455Z,101168.69
2022-12-03T07:33:49.934Z,101167.25
2022-12-03T07:36:16.387Z,101169.81
2022-12-03T07:38:42.815Z,101169.31
2022-12-03T07:41:09.278Z,101171.56
2022-12-03T07:43:35.706Z,101175.31
2022-12-03T07:46:02.181Z,101169.16
2022-12-03T07:48:28.668Z,101168.09
2022-12-03T07:50:55.171Z,101165.50
2022-12-03T07:53:21.726Z,101171.41
2022-12-03T07:55:48.175Z,101170.84
2022-12-03T07:58:14.645Z,101169.31
2022-12-03T08:00:41.100Z,101168.34
2022-12-03T08:03:07.543Z,101165.59
2022-12-03T08:05:34.010Z,101172.34
2022-12-03T08:08:01.777Z,101164.69
2022-12-03T08:10:28.331Z,101158.66
2022-12-03T08:12:57.991Z,101161.69
2022-12-03T08:15:26.772Z,101167.91
2022-12-03T08:18:00.702Z,101165.03
2022-12-03T08:20:38.850Z,101164.53
2022-12-03T08:23:13.279Z,101162.03
2022-12-03T08:25:39.802Z,101151.94
2022-12-03T08:28:35.670Z,101157.13
2022-12-03T08:31:19.572Z,101156.41
2022-12-03T08:33:52.162Z,101153.69
2022-12-03T08:36:22.472Z,101151.56
2022-12-03T08:39:02.033Z,101152.97
2022-12-03T08:41:48.845Z,101151.19
2022-12-03T08:44:28.480Z,101150.84
2022-12-03T08:47:10.064Z,101144.94
2022-12-03T08:49:37.208Z,101150.22
2022-12-03T08:52:13.144Z,101153.34
2022-12-03T08:54:39.585Z,101151.28
2022-12-03T08:57:27.010Z,101153.16
2022-12-03T09:00:01.038Z,101153.63
2022-12-03T09:02:33.183Z,101161.41
2022-12-03T09:05:15.937Z,101161.22
2022-12-03T09:07:42.417Z,101159.06
2022-12-03T09:10:09.803Z,101158.38
2022-12-03T09:12:36.387Z,101160.91
2022-12-03T09:15:02.883Z,101151.88
2022-12-03T09:17:29.401Z,101163.31
2022-12-03T09:19:55.847Z,101150.56
2022-12-03T09:22:22.403Z,101144.84
2022-12-03T09:24:48.840Z,101144.31
2022-12-03T09:27:15.280Z,101146.44
2022-12-03T09:29:41.716Z,101140.03
2022-12-03T09:32:09.819Z,101151.09
2022-12-03T09:34:39.042Z,101147.94
2022-12-03T09:37:05.567Z,101145.34
2022-12-03T09:39:32.002Z,101151.56
2022-12-03T09:41:58.466Z,101147.00
2022-12-03T09:44:25.981Z,101141.53
2022-12-03T09:46:52.491Z,101144.38
2022-12-03T09:49:19.966Z,101138.13
2022-12-03T09:51:46.603Z,101138.06
2022-12-03T09:54:27.334Z,101142.94
2022-12-03T09:56:55.953Z,101148.59
2022-12-03T09:59:25.661Z,101144.72
2022-12-03T10:01:53.373Z,101142.94
2022-12-03T10:04:20.555Z,101143.25
2022-12-03T10:06:47.617Z,101140.16
2022-12-03T10:09:22.321Z,101144.78
2022-12-03T10:11:49.159Z,101142.97
2022-12-03T10:14:18.777Z,101136.19
2022-12-03T10:16:45.980Z,101138.13
2022-12-03T10:19:24.621Z,101131.88
2022-12-03T10:21:51.248Z,101131.88
2022-12-03T10:24:37.763Z,101128.03
2022-12-03T10:27:21.107Z,101126.38
2022-12-03T10:29:58.767Z,101120.22
2022-12-03T10:32:39.383Z,101124.28
2022-12-03T10:35:11.297Z,101115.50
2022-12-03T10:37:56.769Z,101114.16
2022-12-03T10:40:32.223Z,101109.75
2022-12-03T10:43:24.941Z,101103.06
2022-12-03T10:46:11.360Z,101103.00
2022-12-03T10:48:38.597Z,101102.72
2022-12-03T10:51:20.743Z,101101.69
2022-12-03T10:53:48.757Z,101108.16
2022-12-03T10:56:23.888Z,101100.19
2022-12-03T10:58:50.573Z,101104.69
2022-12-03T11:01:23.680Z,101108.38
2022-12-03T11:03:51.012Z,101102.84
2022-12-03T11:06:23.041Z,101102.56
2022-12-03T11:08:58.540Z,101091.31
2022-12-03T11:11:29.178Z,101090.03
2022-12-03T11:14:02.742Z,101082.72
2022-12-03T11:16:40.978Z,101080.00
2022-12-03T11:19:13.427Z,101085.19
2022-12-03T11:22:12.193Z,101086.25
2022-12-03T11:24:40.374Z,101079.09
2022-12-03T11:27:17.004Z,101081.56
2022-12-03T11:29:57.040Z,101073.88
2022-12-03T11:32:38.399Z,101073.94
2022-12-03T11:35:34.167Z,101073.06
2022-12-03T11:38:37.791Z,101071.66
2022-12-03T11:41:07.268Z,101075.34
2022-12-03T11:43:52.133Z,101073.56
2022-12-03T11:46:27.693Z,101077.63
2022-12-03T11:48:57.463Z,101075.41
2022-12-03T11:51:26.774Z,101062.19
2022-12-03T11:53:56.467Z,101060.25
2022-12-03T11:56:26.080Z,101056.47
2022-12-03T11:59:00.999Z,101065.91
2022-12-03T12:01:39.353Z,101063.56
2022-12-03T12:04:08.115Z,101061.72
2022-12-03T12:06:43.754Z,101059.59
2022-12-03T12:09:10.698Z,101052.38
2022-12-03T12:11:43.715Z,101056.00
2022-12-03T12:14:13.601Z,101056.63
2022-12-03T12:16:47.502Z,101053.09
2022-12-03T12:19:41.231Z,101048.44
2022-12-03T12:22:19.799Z,101043.25
2022-12-03T12:24:51.332Z,101048.59
2022-12-03T12:27:21.493Z,101039.75
2022-12-03T12:30:00.078Z,101043.06
2022-12-03T12:32:29.979Z,101032.59
2022-12-03T12:38:39.889Z,101021.09
2022-12-03T12:41:09.824Z,101018.75
2022-12-03T12:43:38.721Z,101019.91
2022-12-03T12:46:45.935Z,101015.56
2022-12-03T12:49:00.290Z,101018.03
2022-12-03T12:51:26.729Z,101031.38
2022-12-03T12:53:53.751Z,101023.13
2022-12-03T12:56:31.124Z,101007.22
2022-12-03T12:59:09.323Z,101010.94
2022-12-03T13:01:37.122Z,101009.97
2022-12-03T13:04:23.865Z,101002.22
2022-12-03T13:06:53.645Z,100992.81
2022-12-03T13:09:23.259Z,100988.31
2022-12-03T13:11:54.265Z,100987.91
2022-12-03T13:14:31.538Z,100979.00
2022-12-03T13:17:00.862Z,100978.84
2022-12-03T13:19:30.161Z,100989.19
2022-12-03T13:22:00.483Z,100993.59
2022-12-03T13:24:40.667Z,100982.06
2022-12-03T13:27:19.639Z,100993.59
2022-12-03T13:29:49.192Z,100986.91
2022-12-03T13:32:21.844Z,100988.31
2022-12-03T13:34:50.421Z,100982.34
2022-12-03T13:37:21.552Z,100985.56
2022-12-03T13:39:50.407Z,100988.25
2022-12-03T13:42:39.095Z,100984.13
2022-12-03T13:45:14.770Z,100992.53
2022-12-03T13:47:49.973Z,100980.50
2022-12-03T13:50:39.328Z,100984.53
2022-12-03T13:53:13.467Z,100988.13
2022-12-03T13:55:44.886Z,100993.47
2022-12-03T13:58:11.338Z,100978.44
2022-12-03T14:00:37.932Z,100987.13
2022-12-03T14:03:04.964Z,100977.50
2022-12-03T14:05:31.483Z,100988.03
2022-12-03T14:07:58.487Z,100984.41
2022-12-03T14:10:25.030Z,100979.13
2022-12-03T14:12:51.449Z,100985.31
2022-12-03T14:15:18.005Z,100985.59
2022-12-03T14:17:44.453Z,100985.94
2022-12-03T14:20:11.564Z,100980.22
2022-12-03T14:22:38.209Z,100981.66
2022-12-03T14:25:06.255Z,100997.88
2022-12-03T14:27:32.853Z,100983.41
2022-12-03T14:29:59.588Z,100984.03
2022-12-03T14:32:26.111Z,100986.09
2022-12-03T14:34:52.617Z,100989.34
2022-12-03T14:37:19.152Z,100982.38
2022-12-03T14:39:45.605Z,100975.50
2022-12-03T14:42:15.014Z,100974.31
2022-12-03T14:44:42.345Z,100973.00
2022-12-03T14:47:09.272Z,100973.22
2022-12-03T14:49:35.971Z,100971.72
2022-12-03T14:52:02.471Z,100974.72
2022-12-03T14:54:28.935Z,100976.28
2022-12-03T14:56:55.471Z,100978.03
2022-12-03T14:59:27.369Z,100979.44
2022-12-03T15:01:54.361Z,100977.91
2022-12-03T15:04:21.004Z,100983.16
2022-12-03T15:06:47.513Z,100983.38
2022-12-03T15:09:14.053Z,100992.91
2022-12-03T15:11:45.938Z,100987.50
2022-12-03T15:14:12.904Z,100992.34
2022-12-03T15:16:39.683Z,100988.56
2022-12-03T15:19:06.166Z,100991.34
2022-12-03T15:21:34.835Z,100992.78
2022-12-03T15:24:02.272Z,100991.84
2022-12-03T15:26:29.293Z,100981.94
2022-12-03T15:28:55.723Z,100985.22
2022-12-03T15:31:22.254Z,100987.00
2022-12-03T15:33:48.775Z,100978.03
2022-12-03T15:36:15.469Z,100980.22
2022-12-03T15:38:41.920Z,100987.22
2022-12-03T15:41:20.975Z,100979.94
2022-12-03T15:43:48.601Z,100981.44
2022-12-03T15:46:15.252Z,100983.50
2022-12-03T15:48:41.754Z,100981.56
2022-12-03T15:51:08.359Z,100986.63
2022-12-03T15:53:35.422Z,100985.94
2022-12-03T15:56:01.921Z,100979.50
2022-12-03T15:58:28.656Z,100976.00
2022-12-03T16:00:55.105Z,100973.28
2022-12-03T16:03:21.620Z,100973.09
2022-12-03T16:05:48.132Z,100984.69
2022-12-03T16:08:14.691Z,100973.44
2022-12-03T16:10:41.332Z,100976.72
2022-12-03T16:13:07.789Z,100978.44
2022-12-03T16:15:35.685Z,100980.28
2022-12-03T16:18:02.186Z,100981.91
2022-12-03T16:20:28.779Z,100981.91
2022-12-03T16:22:55.259Z,100979.78
2022-12-03T16:25:21.956Z,100977.56
2022-12-03T16:27:48.471Z,100972.38
2022-12-03T16:30:15.318Z,100967.94
2022-12-03T16:32:42.270Z,100970.38
2022-12-03T16:35:09.211Z,100972.09
2022-12-03T16:37:35.737Z,100971.53
2022-12-03T16:40:02.808Z,100963.44
2022-12-03T16:42:29.362Z,100962.75
2022-12-03T16:45:08.059Z,100963.00
2022-12-03T16:47:35.484Z,100965.53
2022-12-03T16:50:03.636Z,100958.72
2022-12-03T16:52:30.182Z,100971.09
2022-12-03T16:54:56.722Z,100966.69
2022-12-03T16:57:23.259Z,100968.66
2022-12-03T16:59:49.813Z,100965.31
2022-12-03T17:02:16.331Z,100969.78
2022-12-03T17:04:43.163Z,100963.00
2022-12-03T17:07:09.603Z,100969.25
2022-12-03T17:09:36.051Z,100966.41
2022-12-03T17:12:02.505Z,100958.72
2022-12-03T17:14:33.272Z,100962.13
2022-12-03T17:17:00.198Z,100963.19
2022-12-03T17:19:26.843Z,100955.41
2022-12-03T17:21:54.119Z,100963.00
2022-12-03T17:24:21.384Z,100960.19
2022-12-03T17:26:47.855Z,100962.06
2022-12-03T17:29:14.352Z,100952.28
2022-12-03T17:31:42.507Z,100947.88
2022-12-03T17:34:09.384Z,100949.50
2022-12-03T17:36:35.860Z,100949.81
2022-12-03T17:39:02.380Z,100943.19
2022-12-03T17:41:28.857Z,100947.59
2022-12-03T17:43:55.329Z,100928.94
2022-12-03T17:46:21.908Z,100940.19
2022-12-03T17:48:48.391Z,100936.56
2022-12-03T17:51:14.980Z,100930.41
2022-12-03T17:53:41.413Z,100934.91
2022-12-03T17:56:07.907Z,100931.25
2022-12-03T17:58:34.730Z,100929.84
2022-12-03T18:01:03.144Z,100931.41
2022-12-03T18:03:30.288Z,100925.06
2022-12-03T18:05:56.880Z,100930.78
2022-12-03T18:08:23.417Z,100931.41
2022-12-03T18:10:50.157Z,100927.16
2022-12-03T18:13:16.602Z,100926.13
2022-12-03T18:15:43.188Z,100930.50
2022-12-03T18:18:09.767Z,100932.34
2022-12-03T18:20:36.540Z,100932.78
2022-12-03T18:23:03.617Z,100928.72
2022-12-03T18:25:30.525Z,100936.06
2022-12-03T18:27:57.539Z,100938.47
2022-12-03T18:30:24.139Z,100934.13
2022-12-03T18:32:50.850Z,100925.31
2022-12-03T18:35:17.958Z,100929.84
2022-12-03T18:37:44.787Z,100939.56
2022-12-03T18:40:20.442Z,100935.69
2022-12-03T18:42:47.203Z,100923.66
2022-12-03T18:45:14.947Z,100921.94
2022-12-03T18:47:42.268Z,100921.94
2022-12-03T18:50:10.391Z,100923.50
2022-12-03T18:52:37.212Z,100912.81
2022-12-03T18:55:04.944Z,100919.19
2022-12-03T18:57:31.380Z,100923.44
2022-12-03T18:59:58.235Z,100922.88
2022-12-03T19:05:11.533Z,100928.53
2022-12-03T19:07:38.294Z,100916.84
2022-12-03T19:10:05.395Z,100922.56
2022-12-03T19:12:32.632Z,100920.38
2022-12-03T19:14:59.091Z,100920.38
2022-12-03T19:17:27.123Z,100924.44
2022-12-03T19:19:54.497Z,100914.38
2022-12-03T19:22:21.350Z,100926.00
2022-12-03T19:24:47.857Z,100927.28
2022-12-03T19:27:14.412Z,100920.72
2022-12-03T19:29:40.951Z,100923.44
2022-12-03T19:32:07.403Z,100926.91
2022-12-03T19:34:33.866Z,100933.34
2022-12-03T19:37:00.340Z,100929.72
2022-12-03T19:39:26.854Z,100928.16
2022-12-03T19:41:53.317Z,100936.69
2022-12-03T19:44:19.779Z,100933.06
2022-12-03T19:46:46.211Z,100926.09
2022-12-03T19:49:12.715Z,100926.13
2022-12-03T19:51:39.217Z,100918.19
2022-12-03T19:54:07.564Z,100925.34
2022-12-03T19:56:34.962Z,100934.28
2022-12-03T19:59:01.430Z,100932.34
2022-12-03T20:01:30.855Z,100932.34
2022-12-03T20:03:58.770Z,100934.03
2022-12-03T20:06:28.128Z,100932.44
2022-12-03T20:08:59.479Z,100936.38
2022-12-03T20:11:32.576Z,100932.19
2022-12-03T20:14:04.673Z,100925.94
2022-12-03T20:16:31.804Z,100934.00
2022-12-03T20:19:00.352Z,100925.44
2022-12-03T20:21:29.395Z,100928.00
2022-12-03T20:23:55.819Z,100924.53
2022-12-03T20:26:22.991Z,100927.06
2022-12-03T20:28:50.150Z,100921.88
2022-12-03T20:31:19.836Z,100923.59
2022-12-03T20:33:49.161Z,100923.44
2022-12-03T20:36:17.722Z,100921.66
2022-12-03T20:38:45.066Z,100915.69
2022-12-03T20:41:13.999Z,100911.97
2022-12-03T20:43:41.159Z,100905.13
2022-12-03T20:46:15.827Z,100907.38
2022-12-03T20:48:43.954Z,100901.41
2022-12-03T20:51:16.615Z,100905.81
2022-12-03T20:53:43.723Z,100896.38
2022-12-03T20:56:10.863Z,100899.78
2022-12-03T20:58:37.535Z,100899.00
2022-12-03T21:01:22.837Z,100894.06
2022-12-03T21:03:50.487Z,100898.69
2022-12-03T21:06:17.640Z,100894.50
2022-12-03T21:08:44.601Z,100899.78
2022-12-03T21:11:13.626Z,100900.84
2022-12-03T21:13:41.613Z,100900.56
2022-12-03T21:16:10.399Z,100900.56
2022-12-03T21:18:37.600Z,100894.84
2022-12-03T21:21:05.308Z,100893.28
2022-12-03T21:23:33.466Z,100902.28
2022-12-03T21:26:21.326Z,100901.22
2022-12-03T21:28:50.024Z,100898.56
2022-12-03T21:31:19.200Z,100894.38
2022-12-03T21:33:46.215Z,100892.81
2022-12-03T21:36:15.849Z,100889.03
2022-12-03T21:38:43.625Z,100894.38
2022-12-03T21:41:10.741Z,100890.19
2022-12-03T21:43:37.413Z,100883.91
2022-12-03T21:47:09.617Z,100883.19
2022-12-03T21:48:55.465Z,100891.75
2022-12-03T21:51:21.943Z,100886.69
2022-12-03T21:53:48.447Z,100881.41
2022-12-03T21:56:17.332Z,100897.00
2022-12-03T21:58:45.115Z,100891.56
2022-12-03T22:01:22.993Z,100889.63
2022-12-03T22:03:49.873Z,100885.22
2022-12-03T22:06:17.066Z,100891.56
2022-12-03T22:08:43.984Z,100897.94
2022-12-03T22:11:13.430Z,100899.66
2022-12-03T22:13:40.915Z,100897.09
2022-12-03T22:16:13.478Z,100900.81
2022-12-03T22:18:40.147Z,100896.66
2022-12-03T22:21:09.080Z,100891.25
2022-12-03T22:23:35.672Z,100894.66
2022-12-03T22:26:11.149Z,100889.97
2022-12-03T22:28:37.656Z,100890.88
2022-12-03T22:31:08.439Z,100895.38
2022-12-03T22:33:36.120Z,100896.84
2022-12-03T22:36:08.306Z,100892.44
2022-12-03T22:38:34.767Z,100887.16
2022-12-03T22:41:05.525Z,100885.38
2022-12-03T22:43:32.561Z,100883.59
2022-12-03T22:45:59.235Z,100887.31
2022-12-03T22:48:25.706Z,100877.63
2022-12-03T22:50:52.741Z,100884.75
2022-12-03T22:53:19.680Z,100877.91
2022-12-03T22:55:54.784Z,100860.25
2022-12-03T22:58:21.594Z,100869.09
2022-12-03T23:00:48.058Z,100864.53
2022-12-03T23:03:14.547Z,100859.41
2022-12-03T23:05:41.160Z,100862.88
2022-12-03T23:08:10.579Z,100862.09
2022-12-03T23:10:40.166Z,100863.59
2022-12-03T23:13:07.037Z,100854.75
2022-12-03T23:15:33.754Z,100859.16
2022-12-03T23:18:00.408Z,100855.63
2022-12-03T23:20:27.435Z,100848.53
2022-12-03T23:22:55.333Z,100840.56
2022-12-03T23:25:22.288Z,100838.84
2022-12-03T23:27:49.310Z,100843.13
2022-12-03T23:30:16.597Z,100844.13
2022-12-03T23:32:44.353Z,100836.31
2022-12-03T23:35:12.114Z,100841.66
2022-12-03T23:37:42.183Z,100832.09
2022-12-03T23:40:09.051Z,100835.34
2022-12-03T23:42:35.489Z,100844.13
2022-12-03T23:45:01.967Z,100834.66
2022-12-03T23:47:28.432Z,100832.28
2022-12-03T23:49:55.208Z,100833.84
2022-12-03T23:52:21.923Z,100830.25
2022-12-03T23:54:48.347Z,100835.34
2022-12-03T23:57:15.940Z,100835.53
2022-12-03T23:59:42.424Z,100826.75
